createdAt,value
2022-11-25T00:01:36.607Z,5.10
2022-11-25T00:04:05.062Z,5.10
2022-11-25T00:06:34.540Z,5.10
2022-11-25T00:09:05.516Z,5.10
2022-11-25T00:11:43.956Z,5.10
2022-11-25T00:14:14.902Z,5.10
2022-11-25T00:16:48.389Z,5.10
2022-11-25T00:19:17.615Z,5.10
2022-11-25T00:21:48.035Z,5.10
2022-11-25T00:24:17.298Z,5.10
2022-11-25T00:26:47.803Z,5.10
2022-11-25T00:29:18.156Z,5.10
2022-11-25T00:31:49.752Z,5.10
2022-11-25T00:34:17.878Z,5.10
2022-11-25T00:36:48.513Z,5.20
2022-11-25T00:39:19.943Z,5.20
2022-11-25T00:42:05.764Z,5.20
2022-11-25T00:44:38.113Z,5.20
2022-11-25T00:47:12.651Z,5.20
2022-11-25T00:49:45.503Z,5.30
2022-11-25T00:52:16.325Z,5.30
2022-11-25T00:54:45.683Z,5.30
2022-11-25T00:57:16.974Z,5.30
2022-11-25T00:59:45.263Z,5.30
2022-11-25T01:02:18.641Z,5.30
2022-11-25T01:04:46.934Z,5.40
2022-11-25T01:07:17.819Z,5.40
2022-11-25T01:09:49.225Z,5.40
2022-11-25T01:12:17.354Z,5.50
2022-11-25T01:14:45.449Z,5.50
2022-11-25T01:17:16.989Z,5.50
2022-11-25T01:19:48.713Z,5.50
2022-11-25T01:22:16.909Z,5.50
2022-11-25T01:24:45.267Z,5.60
2022-11-25T01:27:13.378Z,5.60
2022-11-25T01:29:43.286Z,5.60
2022-11-25T01:32:16.319Z,5.60
2022-11-25T01:34:46.475Z,5.60
2022-11-25T01:37:14.936Z,5.60
2022-11-25T01:39:45.188Z,5.70
2022-11-25T01:42:13.454Z,5.70
2022-11-25T01:44:43.634Z,5.70
2022-11-25T01:47:15.933Z,5.70
2022-11-25T01:49:48.884Z,5.70
2022-11-25T01:52:23.633Z,5.70
2022-11-25T01:54:56.649Z,5.70
2022-11-25T01:57:31.866Z,5.70
2022-11-25T02:00:05.449Z,5.70
2022-11-25T02:02:46.083Z,5.70
2022-11-25T02:05:20.765Z,5.70
2022-11-25T02:07:52.296Z,5.70
2022-11-25T02:10:24.598Z,5.70
2022-11-25T02:12:53.631Z,5.70
2022-11-25T02:15:24.055Z,5.70
2022-11-25T02:17:54.328Z,5.70
2022-11-25T02:20:26.388Z,5.70
2022-11-25T02:23:06.299Z,5.70
2022-11-25T02:25:37.224Z,5.70
2022-11-25T02:28:13.322Z,5.70
2022-11-25T02:30:42.265Z,5.70
2022-11-25T02:33:10.866Z,5.80
2022-11-25T02:35:43.030Z,5.70
2022-11-25T02:38:16.642Z,5.70
2022-11-25T02:40:52.539Z,5.70
2022-11-25T02:43:20.760Z,5.70
2022-11-25T02:45:59.516Z,5.70
2022-11-25T02:49:00.700Z,5.80
2022-11-25T02:51:28.799Z,5.80
2022-11-25T02:53:57.170Z,5.80
2022-11-25T02:56:30.748Z,5.80
2022-11-25T02:59:01.334Z,5.80
2022-11-25T03:01:32.643Z,5.80
2022-11-25T03:04:01.244Z,5.80
2022-11-25T03:06:30.170Z,5.80
2022-11-25T03:09:00.521Z,5.80
2022-11-25T03:12:02.371Z,5.80
2022-11-25T03:14:30.575Z,5.90
2022-11-25T03:16:58.725Z,5.80
2022-11-25T03:19:28.195Z,5.90
2022-11-25T03:21:58.859Z,5.90
2022-11-25T03:24:27.194Z,5.90
2022-11-25T03:26:56.955Z,5.90
2022-11-25T03:29:25.153Z,5.90
2022-11-25T03:31:55.404Z,5.90
2022-11-25T03:34:23.780Z,5.90
2022-11-25T03:36:52.058Z,5.90
2022-11-25T03:39:20.368Z,5.90
2022-11-25T03:41:48.532Z,5.90
2022-11-25T03:44:18.452Z,5.90
2022-11-25T03:46:46.626Z,5.90
2022-11-25T03:49:15.018Z,5.90
2022-11-25T03:51:43.357Z,5.90
2022-11-25T03:54:14.680Z,6.00
2022-11-25T03:57:18.309Z,6.00
2022-11-25T03:59:47.912Z,6.00
2022-11-25T04:02:19.481Z,6.00
2022-11-25T04:04:50.955Z,6.00
2022-11-25T04:07:21.128Z,6.00
2022-11-25T04:09:49.883Z,6.00
2022-11-25T04:12:40.309Z,6.00
2022-11-25T04:15:12.177Z,6.00
2022-11-25T04:17:43.683Z,6.00
2022-11-25T04:20:14.305Z,6.00
2022-11-25T04:22:45.676Z,6.10
2022-11-25T04:25:16.840Z,6.10
2022-11-25T04:27:45.131Z,6.10
2022-11-25T04:30:17.322Z,6.10
2022-11-25T04:32:46.242Z,6.10
2022-11-25T04:35:15.462Z,6.10
2022-11-25T04:37:47.221Z,6.10
2022-11-25T04:40:17.553Z,6.10
2022-11-25T04:42:50.395Z,6.10
2022-11-25T04:45:24.067Z,6.10
2022-11-25T04:47:54.796Z,6.20
2022-11-25T04:50:26.000Z,6.20
2022-11-25T04:53:01.076Z,6.20
2022-11-25T04:55:31.481Z,6.20
2022-11-25T04:58:04.693Z,6.20
2022-11-25T05:00:35.317Z,6.20
2022-11-25T05:03:08.376Z,6.20
2022-11-25T05:05:39.563Z,6.20
2022-11-25T05:08:08.442Z,6.20
2022-11-25T05:10:36.788Z,6.20
2022-11-25T05:13:04.926Z,6.20
2022-11-25T05:15:33.574Z,6.30
2022-11-25T05:18:09.700Z,6.30
2022-11-25T05:20:46.654Z,6.30
2022-11-25T05:23:18.041Z,6.30
2022-11-25T05:25:49.464Z,6.30
2022-11-25T05:28:31.477Z,6.30
2022-11-25T05:31:02.235Z,6.30
2022-11-25T05:33:31.941Z,6.30
2022-11-25T05:36:04.532Z,6.30
2022-11-25T05:38:42.284Z,6.30
2022-11-25T05:41:13.313Z,6.30
2022-11-25T05:43:45.255Z,6.30
2022-11-25T05:46:15.662Z,6.40
2022-11-25T05:48:53.564Z,6.40
2022-11-25T05:51:25.800Z,6.40
2022-11-25T05:53:55.970Z,6.40
2022-11-25T05:56:28.598Z,6.40
2022-11-25T05:58:57.531Z,6.40
2022-11-25T06:01:32.238Z,6.40
2022-11-25T06:04:05.454Z,6.40
2022-11-25T06:06:34.386Z,6.40
2022-11-25T06:09:02.797Z,6.40
2022-11-25T06:11:31.820Z,6.40
2022-11-25T06:14:00.043Z,6.40
2022-11-25T06:16:29.957Z,6.40
2022-11-25T06:19:18.752Z,6.40
2022-11-25T06:21:49.249Z,6.40
2022-11-25T06:24:18.040Z,6.50
2022-11-25T06:26:51.864Z,6.50
2022-11-25T06:29:20.017Z,6.50
2022-11-25T06:31:51.303Z,6.50
2022-11-25T06:34:44.033Z,6.50
2022-11-25T06:37:27.232Z,6.50
2022-11-25T06:39:57.670Z,6.60
2022-11-25T06:42:28.106Z,6.60
2022-11-25T06:44:56.297Z,6.60
2022-11-25T06:47:24.569Z,6.60
2022-11-25T06:49:54.148Z,6.60
2022-11-25T06:52:24.800Z,6.60
2022-11-25T06:54:53.811Z,6.70
2022-11-25T06:57:22.244Z,6.70
2022-11-25T06:59:51.337Z,6.70
2022-11-25T07:02:19.631Z,6.70
2022-11-25T07:04:47.955Z,6.70
2022-11-25T07:07:17.483Z,6.80
2022-11-25T07:09:47.391Z,6.80
2022-11-25T07:12:17.698Z,6.80
2022-11-25T07:14:46.131Z,6.80
2022-11-25T07:17:14.279Z,6.80
2022-11-25T07:19:42.364Z,6.90
2022-11-25T07:22:12.776Z,6.90
2022-11-25T07:24:42.302Z,6.90
2022-11-25T07:27:10.542Z,7.00
2022-11-25T07:32:27.028Z,7.00
2022-11-25T07:34:55.117Z,7.10
2022-11-25T07:37:25.316Z,7.10
2022-11-25T07:39:57.260Z,7.10
2022-11-25T07:42:27.731Z,7.10
2022-11-25T07:44:55.849Z,7.20
2022-11-25T07:47:42.125Z,7.20
2022-11-25T07:50:12.593Z,7.30
2022-11-25T07:52:41.450Z,7.30
2022-11-25T07:55:11.179Z,7.40
2022-11-25T07:57:39.322Z,7.40
2022-11-25T08:00:08.858Z,7.40
2022-11-25T08:02:45.503Z,7.40
2022-11-25T08:05:17.394Z,7.40
2022-11-25T08:07:47.793Z,7.40
2022-11-25T08:10:17.455Z,7.40
2022-11-25T08:12:45.632Z,7.40
2022-11-25T08:15:13.730Z,7.50
2022-11-25T08:17:41.850Z,7.50
2022-11-25T08:20:10.560Z,7.50
2022-11-25T08:22:41.075Z,7.50
2022-11-25T08:25:11.731Z,7.50
2022-11-25T08:27:41.249Z,7.50
2022-11-25T08:30:10.516Z,7.50
2022-11-25T08:32:39.131Z,7.60
2022-11-25T08:35:10.250Z,7.60
2022-11-25T08:37:38.457Z,7.60
2022-11-25T08:40:07.907Z,7.70
2022-11-25T08:42:40.139Z,7.70
2022-11-25T08:45:09.694Z,7.70
2022-11-25T08:47:37.904Z,7.70
2022-11-25T08:50:07.631Z,7.80
2022-11-25T08:52:35.735Z,7.80
2022-11-25T08:55:03.905Z,7.90
2022-11-25T08:57:32.021Z,7.90
2022-11-25T09:00:05.004Z,7.90
2022-11-25T09:02:33.443Z,7.90
2022-11-25T09:05:01.607Z,8.00
2022-11-25T09:07:31.018Z,8.00
2022-11-25T09:10:01.760Z,8.10
2022-11-25T09:12:32.456Z,8.10
2022-11-25T09:15:00.539Z,8.10
2022-11-25T09:17:30.109Z,8.10
2022-11-25T09:19:58.215Z,8.20
2022-11-25T09:22:28.597Z,8.20
2022-11-25T09:24:59.402Z,8.20
2022-11-25T09:27:27.520Z,8.30
2022-11-25T09:29:58.093Z,8.30
2022-11-25T09:32:26.222Z,8.30
2022-11-25T09:34:55.654Z,8.30
2022-11-25T09:37:26.477Z,8.40
2022-11-25T09:39:56.053Z,8.40
2022-11-25T09:42:49.658Z,8.40
2022-11-25T09:45:39.078Z,8.40
2022-11-25T09:48:20.860Z,8.50
2022-11-25T09:51:03.135Z,8.50
2022-11-25T09:53:43.258Z,8.60
2022-11-25T09:56:18.685Z,8.60
2022-11-25T09:58:53.042Z,8.60
2022-11-25T10:01:25.999Z,8.70
2022-11-25T10:04:02.075Z,8.70
2022-11-25T10:06:36.177Z,8.70
2022-11-25T10:09:12.558Z,8.80
2022-11-25T10:11:51.536Z,8.90
2022-11-25T10:14:27.249Z,9.00
2022-11-25T10:17:04.776Z,9.00
2022-11-25T10:19:43.668Z,9.00
2022-11-25T10:22:23.162Z,9.10
2022-11-25T10:24:57.644Z,9.20
2022-11-25T10:27:28.393Z,9.20
2022-11-25T10:30:06.130Z,9.30
2022-11-25T10:32:42.562Z,9.40
2022-11-25T10:35:21.568Z,9.40
2022-11-25T10:37:55.090Z,9.40
2022-11-25T10:40:23.257Z,9.50
2022-11-25T10:42:53.665Z,9.50
2022-11-25T10:45:30.128Z,9.40
2022-11-25T10:48:12.268Z,9.50
2022-11-25T10:51:04.106Z,9.50
2022-11-25T10:53:35.659Z,9.60
2022-11-25T10:56:05.747Z,9.70
2022-11-25T10:58:36.151Z,9.70
2022-11-25T11:01:07.687Z,9.80
2022-11-25T11:03:38.575Z,9.80
2022-11-25T11:06:07.346Z,9.90
2022-11-25T11:08:43.499Z,9.90
2022-11-25T11:11:17.782Z,9.90
2022-11-25T11:13:47.299Z,10.00
2022-11-25T11:16:30.445Z,10.00
2022-11-25T11:19:01.502Z,10.00
2022-11-25T11:21:34.219Z,10.10
2022-11-25T11:24:05.559Z,10.10
2022-11-25T11:26:37.360Z,10.10
2022-11-25T11:29:14.566Z,10.10
2022-11-25T11:31:49.305Z,10.20
2022-11-25T11:34:35.479Z,10.20
2022-11-25T11:37:23.646Z,10.30
2022-11-25T11:40:37.142Z,10.30
2022-11-25T11:43:26.622Z,10.40
2022-11-25T11:46:24.744Z,10.40
2022-11-25T11:49:14.389Z,10.40
2022-11-25T11:51:48.447Z,10.50
2022-11-25T11:54:23.851Z,10.50
2022-11-25T11:56:58.721Z,10.50
2022-11-25T11:59:51.494Z,10.50
2022-11-25T12:02:29.378Z,10.50
2022-11-25T12:05:05.998Z,10.50
2022-11-25T12:07:39.625Z,10.60
2022-11-25T12:10:18.130Z,10.60
2022-11-25T12:12:54.405Z,10.60
2022-11-25T12:15:36.615Z,10.60
2022-11-25T12:18:15.483Z,10.60
2022-11-25T12:20:48.856Z,10.70
2022-11-25T12:23:25.034Z,10.70
2022-11-25T12:25:59.787Z,10.70
2022-11-25T12:28:34.219Z,10.70
2022-11-25T12:31:09.652Z,10.70
2022-11-25T12:33:45.177Z,10.70
2022-11-25T12:36:19.773Z,10.80
2022-11-25T12:38:54.138Z,10.80
2022-11-25T12:41:27.963Z,10.80
2022-11-25T12:44:01.560Z,10.80
2022-11-25T12:46:36.843Z,10.80
2022-11-25T12:49:07.786Z,10.80
2022-11-25T12:52:17.291Z,10.80
2022-11-25T12:55:09.909Z,10.80
2022-11-25T12:58:19.746Z,10.80
2022-11-25T13:01:09.790Z,10.80
2022-11-25T13:04:09.733Z,10.90
2022-11-25T13:07:00.332Z,10.80
2022-11-25T13:09:46.324Z,10.90
2022-11-25T13:12:28.768Z,10.90
2022-11-25T13:15:18.674Z,10.90
2022-11-25T13:17:51.020Z,10.90
2022-11-25T13:20:38.657Z,10.90
2022-11-25T13:23:22.858Z,10.90
2022-11-25T13:25:52.524Z,10.80
2022-11-25T13:28:32.476Z,10.80
2022-11-25T13:31:22.691Z,10.80
2022-11-25T13:34:19.511Z,10.80
2022-11-25T13:36:49.657Z,10.80
2022-11-25T13:39:19.250Z,10.80
2022-11-25T13:41:50.377Z,10.80
2022-11-25T13:44:32.156Z,10.90
2022-11-25T13:47:22.696Z,10.90
2022-11-25T13:49:55.773Z,10.90
2022-11-25T13:52:41.915Z,11.00
2022-11-25T13:55:33.909Z,10.90
2022-11-25T13:58:18.010Z,10.90
2022-11-25T14:01:14.549Z,10.90
2022-11-25T14:03:52.956Z,10.80
2022-11-25T14:06:51.011Z,10.80
2022-11-25T14:09:39.112Z,10.80
2022-11-25T14:12:34.223Z,10.70
2022-11-25T14:15:14.667Z,10.70
2022-11-25T14:18:07.079Z,10.70
2022-11-25T14:20:44.267Z,10.70
2022-11-25T14:23:47.736Z,10.60
2022-11-25T14:26:48.877Z,10.60
2022-11-25T14:29:21.735Z,10.60
2022-11-25T14:31:55.780Z,10.60
2022-11-25T14:34:30.044Z,10.60
2022-11-25T14:37:05.910Z,10.60
2022-11-25T14:39:40.642Z,10.60
2022-11-25T14:42:14.211Z,10.60
2022-11-25T14:44:51.216Z,10.60
2022-11-25T14:47:25.372Z,10.60
2022-11-25T14:52:47.730Z,10.60
2022-11-25T14:55:27.844Z,10.50
2022-11-25T14:57:58.690Z,10.50
2022-11-25T15:00:29.160Z,10.40
2022-11-25T15:02:59.243Z,10.40
2022-11-25T15:05:32.273Z,10.40
2022-11-25T15:08:03.722Z,10.30
2022-11-25T15:10:45.933Z,10.30
2022-11-25T15:13:34.453Z,10.30
2022-11-25T15:16:09.439Z,10.20
2022-11-25T15:18:39.294Z,10.20
2022-11-25T15:21:07.950Z,10.20
2022-11-25T15:23:38.948Z,10.20
2022-11-25T15:26:19.234Z,10.20
2022-11-25T15:28:56.151Z,10.10
2022-11-25T15:31:28.886Z,10.10
2022-11-25T15:34:03.505Z,10.10
2022-11-25T15:36:32.324Z,10.10
2022-11-25T15:39:15.682Z,10.10
2022-11-25T15:41:50.107Z,10.00
2022-11-25T15:44:22.869Z,10.00
2022-11-25T15:46:59.927Z,10.00
2022-11-25T15:49:28.739Z,10.00
2022-11-25T15:52:01.768Z,10.00
2022-11-25T15:54:32.452Z,10.00
2022-11-25T15:57:16.958Z,10.00
2022-11-25T15:59:50.953Z,10.00
2022-11-25T16:02:53.333Z,10.00
2022-11-25T16:05:31.779Z,9.90
2022-11-25T16:08:25.505Z,9.90
2022-11-25T16:10:59.397Z,9.90
2022-11-25T16:13:37.579Z,9.80
2022-11-25T16:16:23.943Z,9.80
2022-11-25T16:19:19.181Z,9.70
2022-11-25T16:22:01.968Z,9.80
2022-11-25T16:24:36.106Z,9.70
2022-11-25T16:27:14.728Z,9.70
2022-11-25T16:29:55.151Z,9.70
2022-11-25T16:32:25.776Z,9.60
2022-11-25T16:34:57.599Z,9.60
2022-11-25T16:37:26.059Z,9.60
2022-11-25T16:39:56.339Z,9.60
2022-11-25T16:42:24.492Z,9.50
2022-11-25T16:44:56.630Z,9.50
2022-11-25T16:47:26.193Z,9.50
2022-11-25T16:49:54.656Z,9.50
2022-11-25T16:52:22.904Z,9.40
2022-11-25T16:54:51.176Z,9.40
2022-11-25T16:57:22.596Z,9.40
2022-11-25T16:59:57.226Z,9.40
2022-11-25T17:02:30.293Z,9.40
2022-11-25T17:05:00.025Z,9.30
2022-11-25T17:07:35.883Z,9.30
2022-11-25T17:10:04.361Z,9.30
2022-11-25T17:12:35.003Z,9.20
2022-11-25T17:15:05.589Z,9.20
2022-11-25T17:17:35.760Z,9.20
2022-11-25T17:20:07.591Z,9.20
2022-11-25T17:22:39.671Z,9.20
2022-11-25T17:25:08.890Z,9.10
2022-11-25T17:27:37.121Z,9.10
2022-11-25T17:30:07.960Z,9.10
2022-11-25T17:32:37.466Z,9.10
2022-11-25T17:35:13.719Z,9.10
2022-11-25T17:37:41.816Z,9.00
2022-11-25T17:40:12.394Z,9.00
2022-11-25T17:42:41.985Z,9.00
2022-11-25T17:45:13.885Z,9.00
2022-11-25T17:47:43.908Z,9.00
2022-11-25T17:50:20.853Z,9.00
2022-11-25T17:52:49.414Z,9.00
2022-11-25T17:55:21.675Z,8.90
2022-11-25T17:57:50.649Z,8.90
2022-11-25T18:00:21.212Z,8.90
2022-11-25T18:02:53.493Z,9.00
2022-11-25T18:05:26.587Z,8.90
2022-11-25T18:07:55.083Z,8.90
2022-11-25T18:10:28.219Z,8.90
2022-11-25T18:12:58.139Z,8.90
2022-11-25T18:15:31.664Z,8.90
2022-11-25T18:18:04.985Z,8.90
2022-11-25T18:20:34.352Z,8.90
2022-11-25T18:23:02.705Z,8.90
2022-11-25T18:25:35.121Z,8.80
2022-11-25T18:28:06.560Z,8.80
2022-11-25T18:30:36.990Z,8.80
2022-11-25T18:33:10.295Z,8.80
2022-11-25T18:35:38.569Z,8.70
2022-11-25T18:38:11.183Z,8.70
2022-11-25T18:40:41.235Z,8.70
2022-11-25T18:43:15.809Z,8.70
2022-11-25T18:45:45.322Z,8.60
2022-11-25T18:48:19.891Z,8.60
2022-11-25T18:50:49.037Z,8.60
2022-11-25T18:53:19.251Z,8.60
2022-11-25T18:55:49.864Z,8.50
2022-11-25T18:58:20.497Z,8.50
2022-11-25T19:00:50.166Z,8.50
2022-11-25T19:03:22.497Z,8.50
2022-11-25T19:05:51.862Z,8.40
2022-11-25T19:08:20.063Z,8.40
2022-11-25T19:10:49.591Z,8.40
2022-11-25T19:13:21.866Z,8.40
2022-11-25T19:15:50.048Z,8.40
2022-11-25T19:18:26.669Z,8.40
2022-11-25T19:20:55.177Z,8.30
2022-11-25T19:23:28.263Z,8.30
2022-11-25T19:26:00.848Z,8.30
2022-11-25T19:28:30.708Z,8.30
2022-11-25T19:31:03.339Z,8.30
2022-11-25T19:33:35.843Z,8.30
2022-11-25T19:36:04.483Z,8.30
2022-11-25T19:38:35.157Z,8.30
2022-11-25T19:41:03.469Z,8.30
2022-11-25T19:43:34.106Z,8.30
2022-11-25T19:46:03.740Z,8.30
2022-11-25T19:48:38.708Z,8.20
2022-11-25T19:51:10.906Z,8.20
2022-11-25T19:53:41.173Z,8.20
2022-11-25T19:56:17.038Z,8.20
2022-11-25T19:58:45.412Z,8.20
2022-11-25T20:01:17.305Z,8.20
2022-11-25T20:03:48.288Z,8.10
2022-11-25T20:06:18.104Z,8.10
2022-11-25T20:08:46.731Z,8.10
2022-11-25T20:11:16.739Z,8.10
2022-11-25T20:13:48.143Z,8.10
2022-11-25T20:16:19.722Z,8.00
2022-11-25T20:18:50.096Z,8.00
2022-11-25T20:21:28.073Z,8.00
2022-11-25T20:23:56.501Z,8.00
2022-11-25T20:26:31.328Z,7.90
2022-11-25T20:29:02.175Z,8.00
2022-11-25T20:31:32.447Z,7.90
2022-11-25T20:34:02.016Z,7.90
2022-11-25T20:36:34.506Z,7.90
2022-11-25T20:39:04.365Z,7.90
2022-11-25T20:41:33.330Z,7.90
2022-11-25T20:44:02.281Z,7.80
2022-11-25T20:46:32.775Z,7.80
2022-11-25T20:49:03.599Z,7.80
2022-11-25T20:51:31.876Z,7.80
2022-11-25T20:54:02.214Z,7.70
2022-11-25T20:56:30.698Z,7.70
2022-11-25T20:58:58.855Z,7.70
2022-11-25T21:01:27.030Z,7.70
2022-11-25T21:03:57.459Z,7.70
2022-11-25T21:06:29.718Z,7.60
2022-11-25T21:09:02.577Z,7.60
2022-11-25T21:11:33.067Z,7.60
2022-11-25T21:14:01.475Z,7.60
2022-11-25T21:16:29.745Z,7.60
2022-11-25T21:18:57.918Z,7.60
2022-11-25T21:21:32.934Z,7.50
2022-11-25T21:24:09.275Z,7.50
2022-11-25T21:26:37.467Z,7.40
2022-11-25T21:29:05.631Z,7.40
2022-11-25T21:31:33.899Z,7.40
2022-11-25T21:34:11.196Z,7.40
2022-11-25T21:36:42.393Z,7.40
2022-11-25T21:39:28.901Z,7.40
2022-11-25T21:42:03.189Z,7.30
2022-11-25T21:44:37.358Z,7.30
2022-11-25T21:47:13.736Z,7.30
2022-11-25T21:49:44.075Z,7.30
2022-11-25T21:52:13.988Z,7.20
2022-11-25T21:54:44.757Z,7.20
2022-11-25T21:57:16.466Z,7.20
2022-11-25T21:59:48.051Z,7.20
2022-11-25T22:02:21.804Z,7.10
2022-11-25T22:04:52.569Z,7.10
2022-11-25T22:07:25.176Z,7.10
2022-11-25T22:09:59.767Z,7.00
2022-11-25T22:12:30.579Z,7.00
2022-11-25T22:15:00.452Z,7.00
2022-11-25T22:17:30.326Z,6.90
2022-11-25T22:19:58.629Z,6.90
2022-11-25T22:22:35.665Z,6.80
2022-11-25T22:25:06.786Z,6.80
2022-11-25T22:27:37.039Z,6.80
2022-11-25T22:30:05.695Z,6.70
2022-11-25T22:32:33.927Z,6.70
2022-11-25T22:35:02.177Z,6.70
2022-11-25T22:37:34.019Z,6.60
2022-11-25T22:40:02.154Z,6.60
2022-11-25T22:42:32.971Z,6.60
2022-11-25T22:45:06.113Z,6.60
2022-11-25T22:47:39.939Z,6.50
2022-11-25T22:50:19.017Z,6.50
2022-11-25T22:52:51.583Z,6.50
2022-11-25T22:55:22.643Z,6.50
2022-11-25T22:57:52.382Z,6.40
2022-11-25T23:00:23.343Z,6.40
2022-11-25T23:02:52.817Z,6.40
2022-11-25T23:05:32.230Z,6.30
2022-11-25T23:08:13.539Z,6.30
2022-11-25T23:10:44.789Z,6.30
2022-11-25T23:13:14.474Z,6.30
2022-11-25T23:15:45.366Z,6.30
2022-11-25T23:18:26.222Z,6.30
2022-11-25T23:20:54.551Z,6.30
2022-11-25T23:23:27.628Z,6.20
2022-11-25T23:25:56.598Z,6.20
2022-11-25T23:28:25.396Z,6.20
2022-11-25T23:30:55.298Z,6.20
2022-11-25T23:33:29.892Z,6.20
2022-11-25T23:36:00.771Z,6.20
2022-11-25T23:38:32.236Z,6.20
2022-11-25T23:41:02.874Z,6.10
2022-11-25T23:43:31.540Z,6.10
2022-11-25T23:46:02.139Z,6.10
2022-11-25T23:48:33.339Z,6.10
2022-11-25T23:51:02.869Z,6.00
2022-11-25T23:53:40.133Z,6.00
2022-11-25T23:56:10.385Z,6.00
2022-11-25T23:58:38.678Z,5.90
